createdAt,value
2022-11-26T00:02:21.468Z,15.15
2022-11-26T00:05:24.562Z,15.25
2022-11-26T00:08:35.326Z,15.65
2022-11-26T00:11:36.104Z,14.35
2022-11-26T00:14:37.126Z,12.10
2022-11-26T00:17:38.180Z,11.48
2022-11-26T00:20:39.431Z,10.70
2022-11-26T00:23:40.469Z,11.82
2022-11-26T00:26:41.317Z,10.23
2022-11-26T00:29:42.685Z,10.63
2022-11-26T00:32:43.516Z,10.80
2022-11-26T00:35:47.078Z,10.40
2022-11-26T00:38:54.281Z,10.63
2022-11-26T00:41:55.108Z,10.65
2022-11-26T00:44:55.798Z,10.20
2022-11-26T00:47:59.139Z,11.43
2022-11-26T00:51:00.131Z,10.02
2022-11-26T00:54:02.936Z,9.88
2022-11-26T00:57:03.731Z,9.10
2022-11-26T01:00:19.086Z,7.88
2022-11-26T01:03:20.678Z,7.30
2022-11-26T01:06:32.603Z,6.68
2022-11-26T01:09:33.529Z,7.05
2022-11-26T01:12:34.354Z,6.68
2022-11-26T01:15:35.164Z,5.95
2022-11-26T01:18:36.430Z,6.05
2022-11-26T01:21:37.499Z,6.15
2022-11-26T01:24:38.676Z,7.28
2022-11-26T01:27:40.399Z,7.63
2022-11-26T01:30:42.514Z,8.25
2022-11-26T01:33:45.361Z,8.00
2022-11-26T01:36:46.296Z,7.60
2022-11-26T01:39:46.977Z,8.73
2022-11-26T01:42:53.501Z,8.93
2022-11-26T01:45:56.511Z,9.70
2022-11-26T01:49:27.978Z,9.32
2022-11-26T01:52:28.959Z,9.68
2022-11-26T01:55:48.191Z,8.77
2022-11-26T01:59:02.939Z,8.52
2022-11-26T02:02:04.797Z,9.73
2022-11-26T02:05:23.499Z,10.57
2022-11-26T02:08:28.310Z,10.85
2022-11-26T02:11:29.478Z,10.90
2022-11-26T02:14:37.216Z,12.48
2022-11-26T02:17:58.194Z,12.10
2022-11-26T02:21:27.518Z,12.82
2022-11-26T02:24:50.870Z,13.73
2022-11-26T02:28:44.474Z,13.35
2022-11-26T02:32:09.746Z,14.07
2022-11-26T02:35:25.085Z,15.45
2022-11-26T02:38:33.157Z,15.30
2022-11-26T02:41:48.271Z,14.15
2022-11-26T02:44:49.972Z,13.93
2022-11-26T02:48:00.001Z,13.32
2022-11-26T02:51:12.542Z,13.70
2022-11-26T02:54:15.617Z,12.93
2022-11-26T02:57:23.597Z,12.40
2022-11-26T03:00:25.143Z,15.57
2022-11-26T03:03:36.342Z,19.30
2022-11-26T03:06:39.402Z,19.20
2022-11-26T03:09:54.464Z,17.70
2022-11-26T03:12:55.729Z,20.00
2022-11-26T03:15:56.672Z,20.40
2022-11-26T03:18:57.559Z,20.35
2022-11-26T03:21:58.654Z,23.83
2022-11-26T03:24:59.499Z,24.60
2022-11-26T03:28:00.306Z,29.63
2022-11-26T03:31:01.414Z,28.92
2022-11-26T03:34:02.067Z,33.35
2022-11-26T03:37:02.916Z,31.45
2022-11-26T03:40:04.340Z,27.95
2022-11-26T03:43:05.583Z,28.33
2022-11-26T03:46:06.472Z,26.33
2022-11-26T03:49:07.323Z,27.23
2022-11-26T03:52:08.160Z,25.88
2022-11-26T03:55:10.220Z,24.65
2022-11-26T03:58:10.914Z,25.70
2022-11-26T04:01:13.447Z,25.58
2022-11-26T04:04:14.663Z,23.63
2022-11-26T04:07:15.751Z,25.02
2022-11-26T04:10:17.209Z,23.65
2022-11-26T04:13:18.060Z,24.10
2022-11-26T04:16:20.821Z,23.50
2022-11-26T04:19:21.859Z,22.25
2022-11-26T04:22:22.604Z,20.85
2022-11-26T04:25:23.473Z,20.23
2022-11-26T04:28:26.266Z,17.27
2022-11-26T04:31:27.187Z,19.75
2022-11-26T04:34:28.197Z,19.50
2022-11-26T04:37:28.930Z,19.30
2022-11-26T04:40:29.999Z,20.45
2022-11-26T04:43:30.926Z,19.35
2022-11-26T04:46:32.051Z,20.67
2022-11-26T04:49:32.954Z,21.70
2022-11-26T04:52:33.837Z,22.00
2022-11-26T04:55:34.895Z,22.77
2022-11-26T04:58:36.049Z,23.52
2022-11-26T05:01:37.156Z,21.48
2022-11-26T05:04:38.327Z,23.45
2022-11-26T05:07:39.940Z,24.33
2022-11-26T05:10:41.474Z,24.58
2022-11-26T05:13:43.031Z,29.17
2022-11-26T05:16:44.255Z,33.47
2022-11-26T05:19:45.474Z,37.88
2022-11-26T05:22:46.266Z,42.78
2022-11-26T05:25:47.956Z,47.90
2022-11-26T05:28:49.158Z,46.63
2022-11-26T05:31:50.308Z,49.67
2022-11-26T05:34:54.507Z,32.60
2022-11-26T05:37:59.569Z,28.88
2022-11-26T05:41:00.210Z,25.63
2022-11-26T05:44:01.933Z,26.30
2022-11-26T05:47:03.604Z,25.13
2022-11-26T05:50:05.566Z,26.20
2022-11-26T05:53:06.807Z,23.65
2022-11-26T05:56:08.425Z,35.78
2022-11-26T05:59:11.253Z,35.28
2022-11-26T06:02:12.612Z,28.35
2022-11-26T06:05:14.049Z,18.35
2022-11-26T06:08:15.075Z,26.90
2022-11-26T06:11:15.873Z,18.08
2022-11-26T06:14:18.078Z,19.58
2022-11-26T06:17:19.657Z,22.05
2022-11-26T06:20:20.785Z,22.98
2022-11-26T06:23:21.862Z,22.08
2022-11-26T06:26:23.234Z,22.67
2022-11-26T06:29:27.896Z,23.50
2022-11-26T06:32:30.174Z,24.10
2022-11-26T06:35:30.858Z,26.95
2022-11-26T06:38:32.216Z,25.60
2022-11-26T06:41:33.713Z,27.58
2022-11-26T06:44:38.017Z,30.17
2022-11-26T06:47:39.056Z,30.95
2022-11-26T06:50:39.894Z,28.92
2022-11-26T06:53:40.985Z,28.98
2022-11-26T06:56:42.166Z,33.00
2022-11-26T06:59:43.547Z,31.73
2022-11-26T07:02:44.352Z,33.25
2022-11-26T07:05:45.230Z,35.28
2022-11-26T07:08:46.355Z,33.47
2022-11-26T07:11:49.407Z,32.17
2022-11-26T07:14:50.367Z,30.08
2022-11-26T07:17:51.508Z,32.15
2022-11-26T07:20:52.418Z,35.08
2022-11-26T07:23:54.108Z,30.20
2022-11-26T07:26:56.330Z,30.60
2022-11-26T07:30:00.286Z,32.53
2022-11-26T07:33:01.066Z,38.55
2022-11-26T07:36:05.473Z,29.88
2022-11-26T07:39:06.625Z,42.25
2022-11-26T07:42:07.771Z,48.88
2022-11-26T07:45:09.320Z,47.40
2022-11-26T07:48:15.383Z,34.60
2022-11-26T07:51:29.780Z,34.08
2022-11-26T07:54:30.845Z,37.08
2022-11-26T07:57:31.663Z,37.75
2022-11-26T08:00:32.875Z,29.02
2022-11-26T08:03:33.659Z,26.02
2022-11-26T08:06:34.765Z,25.95
2022-11-26T08:09:35.840Z,27.48
2022-11-26T08:12:36.737Z,29.08
2022-11-26T08:15:38.073Z,27.30
2022-11-26T08:18:39.782Z,27.55
2022-11-26T08:21:41.812Z,25.33
2022-11-26T08:24:43.139Z,25.10
2022-11-26T08:27:44.247Z,24.52
2022-11-26T08:30:46.545Z,24.58
2022-11-26T08:33:47.487Z,26.10
2022-11-26T08:36:48.627Z,25.77
2022-11-26T08:39:49.606Z,27.05
2022-11-26T08:42:50.489Z,24.63
2022-11-26T08:45:57.146Z,22.42
2022-11-26T08:48:58.627Z,18.77
2022-11-26T08:51:59.862Z,17.85
2022-11-26T08:55:00.518Z,18.80
2022-11-26T08:58:01.509Z,16.80
2022-11-26T09:01:16.277Z,17.42
2022-11-26T09:04:17.795Z,16.38
2022-11-26T09:07:18.826Z,15.07
2022-11-26T09:10:20.036Z,16.67
2022-11-26T09:13:21.471Z,15.25
2022-11-26T09:16:23.204Z,15.98
2022-11-26T09:19:25.525Z,15.32
2022-11-26T09:22:26.291Z,15.95
2022-11-26T09:25:27.012Z,16.15
2022-11-26T09:28:28.989Z,15.40
2022-11-26T09:31:30.898Z,17.73
2022-11-26T09:34:33.682Z,18.20
2022-11-26T09:37:34.895Z,18.55
2022-11-26T09:40:50.054Z,17.73
2022-11-26T09:44:22.299Z,19.00
2022-11-26T09:47:28.673Z,17.70
2022-11-26T09:50:35.538Z,17.23
2022-11-26T09:53:42.838Z,14.70
2022-11-26T09:56:43.621Z,16.08
2022-11-26T09:59:48.907Z,14.98
2022-11-26T10:02:56.529Z,14.60
2022-11-26T10:06:09.099Z,15.00
2022-11-26T10:09:28.846Z,15.10
2022-11-26T10:13:03.082Z,15.23
2022-11-26T10:16:36.403Z,14.15
2022-11-26T10:20:05.219Z,13.75
2022-11-26T10:23:18.946Z,12.48
2022-11-26T10:26:37.222Z,12.15
2022-11-26T10:29:44.108Z,11.77
2022-11-26T10:32:47.583Z,12.75
2022-11-26T10:35:50.143Z,12.98
2022-11-26T10:38:52.896Z,12.07
2022-11-26T10:41:53.716Z,10.60
2022-11-26T10:44:54.948Z,11.32
2022-11-26T10:48:26.422Z,10.65
2022-11-26T10:51:33.262Z,10.23
2022-11-26T10:54:39.376Z,10.68
2022-11-26T10:57:47.807Z,9.98
2022-11-26T11:00:48.789Z,9.20
2022-11-26T11:04:13.858Z,9.98
2022-11-26T11:07:41.328Z,7.70
2022-11-26T11:10:59.030Z,8.88
2022-11-26T11:14:00.116Z,7.85
2022-11-26T11:17:01.235Z,9.38
2022-11-26T11:20:41.548Z,7.57
2022-11-26T11:27:03.406Z,7.95
2022-11-26T11:30:04.915Z,8.50
2022-11-26T11:33:23.244Z,7.82
2022-11-26T11:36:29.439Z,7.35
2022-11-26T11:39:34.179Z,7.60
2022-11-26T11:42:35.019Z,6.78
2022-11-26T11:45:48.561Z,6.30
2022-11-26T11:49:39.003Z,5.70
2022-11-26T11:52:59.574Z,6.57
2022-11-26T11:56:26.928Z,6.30
2022-11-26T12:00:10.204Z,6.57
2022-11-26T12:03:27.972Z,5.77
2022-11-26T12:07:00.762Z,7.40
2022-11-26T12:10:23.070Z,6.97
2022-11-26T12:13:27.103Z,9.20
2022-11-26T12:16:38.063Z,10.00
2022-11-26T12:20:14.725Z,9.30
2022-11-26T12:23:28.414Z,10.32
2022-11-26T12:26:48.066Z,10.55
2022-11-26T12:29:57.817Z,9.43
2022-11-26T12:33:20.881Z,10.02
2022-11-26T12:36:39.891Z,9.85
2022-11-26T12:39:56.737Z,9.05
2022-11-26T12:43:13.553Z,10.25
2022-11-26T12:46:43.424Z,9.20
2022-11-26T12:50:07.464Z,9.40
2022-11-26T12:53:25.457Z,9.95
2022-11-26T12:56:51.107Z,10.43
2022-11-26T13:00:11.223Z,9.48
2022-11-26T13:03:18.885Z,10.18
2022-11-26T13:06:42.902Z,9.38
2022-11-26T13:10:10.567Z,8.95
2022-11-26T13:13:39.139Z,9.13
2022-11-26T13:17:02.274Z,8.63
2022-11-26T13:20:40.158Z,9.63
2022-11-26T13:24:21.848Z,8.52
2022-11-26T13:27:52.306Z,6.95
2022-11-26T13:31:05.993Z,7.32
2022-11-26T13:35:13.497Z,7.55
2022-11-26T13:38:37.272Z,7.07
2022-11-26T13:42:23.386Z,7.60
2022-11-26T13:46:02.443Z,7.75
2022-11-26T13:49:26.127Z,7.15
2022-11-26T13:52:42.422Z,6.18
2022-11-26T13:55:53.851Z,6.05
2022-11-26T13:59:02.870Z,6.28
2022-11-26T14:02:42.855Z,6.65
2022-11-26T14:05:49.635Z,6.72
2022-11-26T14:08:53.328Z,6.75
2022-11-26T14:11:57.021Z,6.15
2022-11-26T14:14:58.362Z,6.18
2022-11-26T14:17:59.651Z,5.97
2022-11-26T14:21:00.817Z,5.68
2022-11-26T14:24:02.931Z,6.25
2022-11-26T14:27:03.811Z,5.03
2022-11-26T14:30:07.664Z,5.78
2022-11-26T14:33:24.168Z,5.65
2022-11-26T14:36:29.070Z,5.65
2022-11-26T14:39:31.823Z,6.60
2022-11-26T14:42:32.887Z,5.57
2022-11-26T14:45:34.600Z,5.78
2022-11-26T14:48:43.701Z,6.32
2022-11-26T14:51:49.427Z,5.32
2022-11-26T14:54:59.326Z,5.78
2022-11-26T14:58:09.790Z,5.25
2022-11-26T15:01:27.288Z,4.93
2022-11-26T15:04:34.631Z,5.80
2022-11-26T15:10:47.683Z,5.00
2022-11-26T15:13:48.668Z,5.75
2022-11-26T15:16:58.078Z,4.88
2022-11-26T15:20:04.536Z,7.95
2022-11-26T15:23:06.894Z,7.65
2022-11-26T15:26:18.750Z,6.25
2022-11-26T15:29:41.556Z,6.05
2022-11-26T15:32:42.983Z,6.95
2022-11-26T15:35:44.261Z,5.90
2022-11-26T15:39:08.516Z,5.70
2022-11-26T15:42:29.074Z,6.40
2022-11-26T15:45:41.307Z,6.10
2022-11-26T15:48:57.487Z,4.88
2022-11-26T15:52:13.557Z,5.15
2022-11-26T15:55:30.194Z,4.32
2022-11-26T15:58:40.383Z,4.22
2022-11-26T16:01:46.639Z,4.70
2022-11-26T16:04:53.019Z,5.10
2022-11-26T16:08:23.318Z,4.55
2022-11-26T16:11:24.381Z,4.88
2022-11-26T16:14:33.999Z,4.60
2022-11-26T16:17:37.157Z,4.32
2022-11-26T16:20:38.425Z,5.43
2022-11-26T16:23:39.295Z,5.55
2022-11-26T16:27:25.259Z,6.43
2022-11-26T16:30:26.269Z,5.67
2022-11-26T16:33:29.090Z,5.25
2022-11-26T16:36:34.138Z,6.15
2022-11-26T16:39:40.512Z,5.60
2022-11-26T16:42:42.011Z,5.70
2022-11-26T16:45:43.277Z,5.65
2022-11-26T16:48:46.139Z,6.80
2022-11-26T16:51:46.940Z,6.72
2022-11-26T16:54:49.507Z,7.10
2022-11-26T16:57:56.660Z,7.82
2022-11-26T17:00:58.664Z,7.78
2022-11-26T17:03:59.839Z,8.48
2022-11-26T17:07:01.219Z,8.52
2022-11-26T17:10:04.427Z,8.45
2022-11-26T17:13:05.456Z,7.93
2022-11-26T17:16:15.762Z,8.57
2022-11-26T17:19:17.041Z,8.65
2022-11-26T17:22:17.727Z,9.80
2022-11-26T17:25:20.182Z,9.20
2022-11-26T17:28:23.333Z,8.60
2022-11-26T17:31:24.162Z,9.75
2022-11-26T17:34:26.213Z,10.93
2022-11-26T17:37:29.894Z,11.50
2022-11-26T17:40:30.825Z,11.30
2022-11-26T17:43:31.999Z,11.15
2022-11-26T17:46:42.855Z,11.25
2022-11-26T17:49:54.924Z,11.25
2022-11-26T17:52:56.259Z,10.57
2022-11-26T17:55:57.259Z,11.10
2022-11-26T17:59:02.746Z,11.23
2022-11-26T18:02:03.845Z,10.13
2022-11-26T18:05:05.197Z,11.02
2022-11-26T18:08:06.289Z,11.32
2022-11-26T18:11:07.954Z,11.25
2022-11-26T18:14:09.078Z,10.13
2022-11-26T18:17:12.163Z,11.07
2022-11-26T18:20:13.418Z,12.02
2022-11-26T18:23:14.254Z,13.50
2022-11-26T18:26:19.168Z,16.73
2022-11-26T18:29:20.332Z,16.33
2022-11-26T18:32:21.974Z,16.27
2022-11-26T18:35:23.198Z,16.50
2022-11-26T18:38:29.121Z,16.55
2022-11-26T18:41:30.600Z,17.55
2022-11-26T18:44:32.246Z,17.00
2022-11-26T18:47:33.646Z,16.63
2022-11-26T18:50:34.753Z,16.75
2022-11-26T18:53:35.835Z,18.23
2022-11-26T18:56:36.972Z,17.73
2022-11-26T18:59:38.501Z,18.80
2022-11-26T19:02:39.952Z,19.10
2022-11-26T19:05:44.685Z,19.52
2022-11-26T19:08:47.642Z,21.58
2022-11-26T19:11:48.616Z,20.35
2022-11-26T19:14:49.302Z,23.40
2022-11-26T19:17:50.102Z,22.83
2022-11-26T19:20:56.487Z,23.52
2022-11-26T19:24:01.656Z,21.75
2022-11-26T19:27:02.452Z,22.30
2022-11-26T19:30:03.755Z,21.35
2022-11-26T19:33:05.730Z,20.77
2022-11-26T19:36:13.192Z,21.88
2022-11-26T19:39:15.900Z,27.05
2022-11-26T19:42:16.717Z,24.85
2022-11-26T19:45:17.454Z,25.05
2022-11-26T19:48:18.593Z,24.42
2022-11-26T19:51:22.712Z,41.53
2022-11-26T19:54:23.662Z,30.15
2022-11-26T19:57:24.621Z,30.73
2022-11-26T20:00:25.829Z,24.13
2022-11-26T20:03:35.734Z,23.40
2022-11-26T20:06:39.303Z,23.00
2022-11-26T20:09:40.449Z,23.08
2022-11-26T20:12:41.719Z,24.00
2022-11-26T20:15:48.543Z,22.10
2022-11-26T20:18:50.651Z,21.25
2022-11-26T20:21:51.298Z,23.08
2022-11-26T20:24:52.106Z,21.20
2022-11-26T20:27:52.858Z,23.25
2022-11-26T20:30:53.906Z,25.15
2022-11-26T20:33:55.248Z,24.42
2022-11-26T20:36:56.590Z,27.98
2022-11-26T20:39:57.823Z,27.25
2022-11-26T20:42:58.810Z,28.27
2022-11-26T20:46:07.624Z,30.00
2022-11-26T20:49:10.986Z,29.23
2022-11-26T20:52:12.146Z,31.20
2022-11-26T20:55:13.073Z,29.73
2022-11-26T20:58:13.824Z,31.88
2022-11-26T21:01:40.988Z,41.70
2022-11-26T21:04:42.276Z,44.58
2022-11-26T21:07:43.336Z,34.08
2022-11-26T21:10:44.956Z,38.42
2022-11-26T21:13:45.722Z,35.33
2022-11-26T21:16:46.816Z,32.20
2022-11-26T21:19:48.451Z,33.80
2022-11-26T21:22:49.323Z,30.17
2022-11-26T21:25:50.511Z,31.08
2022-11-26T21:29:00.179Z,30.67
2022-11-26T21:32:01.116Z,31.90
2022-11-26T21:35:02.446Z,32.47
2022-11-26T21:38:05.278Z,34.08
2022-11-26T21:41:11.142Z,35.55
2022-11-26T21:44:12.895Z,35.42
2022-11-26T21:47:16.942Z,33.15
2022-11-26T21:50:19.582Z,33.97
2022-11-26T21:53:21.506Z,31.60
2022-11-26T21:56:28.699Z,29.13
2022-11-26T21:59:29.862Z,29.20
2022-11-26T22:02:30.998Z,28.10
2022-11-26T22:05:32.995Z,26.75
2022-11-26T22:08:35.042Z,25.00
2022-11-26T22:11:40.543Z,26.70
2022-11-26T22:14:41.582Z,24.55
2022-11-26T22:17:42.446Z,23.63
2022-11-26T22:20:51.571Z,22.05
2022-11-26T22:23:53.359Z,22.98
2022-11-26T22:26:54.766Z,20.75
2022-11-26T22:29:55.962Z,21.85
2022-11-26T22:32:56.771Z,20.13
2022-11-26T22:36:01.579Z,19.20
2022-11-26T22:39:04.766Z,17.98
2022-11-26T22:42:05.621Z,17.63
2022-11-26T22:45:07.661Z,18.65
2022-11-26T22:48:11.324Z,18.77
2022-11-26T22:51:12.647Z,17.60
2022-11-26T22:54:15.943Z,18.83
2022-11-26T22:57:20.984Z,20.67
2022-11-26T23:00:46.439Z,20.88
2022-11-26T23:03:48.530Z,21.27
2022-11-26T23:06:49.952Z,20.67
2022-11-26T23:09:51.383Z,19.63
2022-11-26T23:12:52.694Z,20.75
2022-11-26T23:15:53.609Z,19.10
2022-11-26T23:18:57.539Z,18.77
2022-11-26T23:21:58.754Z,18.98
2022-11-26T23:24:59.511Z,21.45
2022-11-26T23:28:00.272Z,19.42
2022-11-26T23:31:16.653Z,19.88
2022-11-26T23:34:17.909Z,19.35
2022-11-26T23:37:19.127Z,20.17
2022-11-26T23:40:20.020Z,18.60
2022-11-26T23:43:21.256Z,19.38
2022-11-26T23:46:29.625Z,19.42
2022-11-26T23:49:30.541Z,19.75
2022-11-26T23:52:31.604Z,20.13
2022-11-26T23:55:33.662Z,19.50
2022-11-26T23:58:34.856Z,19.70
